Time;durP1;ratioP1;P1;durP2;ratioP2;P2;SDS_P1;SDS_P2;PMS_P1;PMS_P2;Temp;Humidity;BMP_temperature;BMP_pressure;BME280_temperature;BME280_humidity;BME280_pressure;Samples;Min_cycle;Max_cycle;Signal;HPM_P1;HPM_P2
2023/05/02 00:01:30;;;;;;;38.78;15.88;;;;;;;9.36;92.68;102311.66;6094428;19;20017;-70
2023/05/02 00:03:35;;;;;;;47.63;15.02;;;;;;;9.37;93.11;102318.66;6095319;19;20032;-70
2023/05/02 00:05:43;;;;;;;40.70;16.17;;;;;;;9.41;92.71;102316.84;6096725;19;20157;-70
2023/05/02 00:07:49;;;;;;;43.67;16.25;;;;;;;9.41;92.79;102314.22;6096885;19;20031;-70
2023/05/02 00:09:54;;;;;;;44.92;16.13;;;;;;;9.43;92.90;102317.72;6096973;19;20500;-70
2023/05/02 00:12:01;;;;;;;39.45;14.32;;;;;;;9.43;92.88;102320.34;6096687;19;20039;-70
2023/05/02 00:14:06;;;;;;;39.97;15.65;;;;;;;9.46;92.92;102320.28;6095671;19;20014;-69
2023/05/02 00:16:11;;;;;;;42.83;15.63;;;;;;;9.50;92.82;102319.34;6095540;19;20002;-69
2023/05/02 00:18:19;;;;;;;42.40;14.48;;;;;;;9.55;92.89;102320.16;6094278;19;20002;-69
2023/05/02 00:20:24;;;;;;;41.25;14.93;;;;;;;9.58;92.68;102314.88;6096273;19;20017;-70
2023/05/02 00:22:29;;;;;;;39.65;15.27;;;;;;;9.62;92.51;102313.09;6090302;19;20027;-70
2023/05/02 00:24:35;;;;;;;36.55;13.85;;;;;;;9.64;92.47;102322.69;6097769;19;20014;-70
2023/05/02 00:26:40;;;;;;;42.72;15.85;;;;;;;9.65;92.59;102319.16;6099744;19;20018;-69
2023/05/02 00:28:45;;;;;;;50.80;16.13;;;;;;;9.68;92.38;102319.13;6098044;19;20033;-70
2023/05/02 00:30:50;;;;;;;44.35;15.68;;;;;;;9.71;92.29;102327.84;6098708;19;20159;-70
2023/05/02 00:32:55;;;;;;;34.10;12.65;;;;;;;9.73;92.26;102320.84;6096292;19;20016;-70
2023/05/02 00:35:04;;;;;;;33.63;12.90;;;;;;;9.78;92.04;102329.50;6096609;19;20014;-69
2023/05/02 00:37:09;;;;;;;33.53;12.02;;;;;;;9.81;91.97;102324.22;6094866;19;20010;-69
2023/05/02 00:39:14;;;;;;;36.00;11.95;;;;;;;9.81;91.96;102321.59;6096700;19;20178;-70
2023/05/02 00:41:19;;;;;;;28.40;11.30;;;;;;;9.84;91.91;102318.91;6098646;19;20109;-70
2023/05/02 00:43:24;;;;;;;28.98;11.60;;;;;;;9.84;91.83;102321.53;6097131;19;20011;-69
2023/05/02 00:45:31;;;;;;;31.42;11.55;;;;;;;9.88;91.97;102323.25;6095362;19;20011;-70
2023/05/02 00:47:37;;;;;;;37.83;10.85;;;;;;;9.84;91.68;102314.53;6096295;19;20019;-69
2023/05/02 00:49:42;;;;;;;27.55;10.75;;;;;;;9.89;91.29;102317.97;6097662;19;20418;-69
2023/05/02 00:51:50;;;;;;;27.58;9.35;;;;;;;9.79;91.62;102323.38;6097734;19;20256;-69
2023/05/02 00:53:56;;;;;;;21.55;7.82;;;;;;;9.76;91.43;102333.91;6095177;19;20002;-69
2023/05/02 00:56:03;;;;;;;20.27;8.80;;;;;;;9.74;91.36;102327.81;6097171;19;20507;-70
2023/05/02 00:58:13;;;;;;;23.63;8.38;;;;;;;9.74;91.16;102328.69;6096912;19;20017;-69
2023/05/02 01:00:18;;;;;;;25.58;8.82;;;;;;;9.77;91.20;102333.91;6097858;19;20010;-70
2023/05/02 01:02:38;;;;;;;22.05;9.98;;;;;;;9.75;91.10;102335.69;6053550;19;20041;-70
2023/05/02 01:04:59;;;;;;;23.42;10.52;;;;;;;9.75;91.67;102346.16;6038816;19;20607;-70
2023/05/02 01:07:20;;;;;;;25.27;11.75;;;;;;;9.75;91.58;102333.03;6043709;19;20274;-69
2023/05/02 01:09:39;;;;;;;18.23;9.45;;;;;;;9.73;91.95;102331.31;6044861;19;20013;-70
2023/05/02 01:11:50;;;;;;;24.45;12.55;;;;;;;9.73;92.20;102339.22;6046977;19;20014;-69
2023/05/02 01:13:59;;;;;;;30.58;12.27;;;;;;;9.72;92.37;102350.59;6043003;19;20090;-70
2023/05/02 01:16:06;;;;;;;25.45;9.23;;;;;;;9.57;91.88;102352.50;6041353;19;20271;-69
2023/05/02 01:18:15;;;;;;;25.95;8.32;;;;;;;9.56;91.48;102350.78;6048223;19;20590;-69
2023/05/02 01:20:25;;;;;;;24.27;8.52;;;;;;;9.53;91.50;102360.44;6042464;19;20056;-69
2023/05/02 01:22:34;;;;;;;18.50;7.55;;;;;;;9.53;90.81;102356.09;6041691;19;20292;-68
2023/05/02 01:24:51;;;;;;;22.73;6.88;;;;;;;9.49;90.39;102353.50;6042909;19;20010;-69
2023/05/02 01:27:09;;;;;;;21.33;7.50;;;;;;;9.50;90.10;102358.72;6041270;19;20329;-70
2023/05/02 01:29:19;;;;;;;17.75;6.25;;;;;;;9.46;89.61;102354.41;6045308;19;20517;-70
2023/05/02 01:31:26;;;;;;;20.05;6.40;;;;;;;9.56;89.11;102361.28;6042385;19;20324;-71
2023/05/02 01:33:33;;;;;;;16.95;6.40;;;;;;;9.49;89.22;102356.13;6047714;19;20425;-70
2023/05/02 01:35:43;;;;;;;17.05;6.82;;;;;;;9.54;89.27;102357.81;6047756;19;20301;-71
2023/05/02 01:37:50;;;;;;;20.30;6.72;;;;;;;9.59;88.40;102363.88;6046567;19;20043;-69
2023/05/02 01:40:00;;;;;;;13.85;6.93;;;;;;;9.55;88.70;102367.41;6050376;19;20040;-73
2023/05/02 01:42:07;;;;;;;17.45;7.32;;;;;;;9.49;88.78;102367.50;6046081;19;20328;-69
2023/05/02 01:44:14;;;;;;;14.30;7.20;;;;;;;9.50;89.12;102382.34;6051488;19;20281;-70
2023/05/02 01:46:26;;;;;;;17.65;7.30;;;;;;;9.57;88.98;102372.66;6048637;19;20017;-70
2023/05/02 01:48:34;;;;;;;19.92;8.68;;;;;;;9.51;89.29;102381.47;6034599;19;20259;-69
2023/05/02 01:50:43;;;;;;;26.17;7.72;;;;;;;9.56;88.88;102384.03;6045963;19;20194;-71
2023/05/02 01:52:50;;;;;;;32.38;8.60;;;;;;;9.48;89.07;102388.47;6043802;19;20504;-69
2023/05/02 01:54:59;;;;;;;30.23;8.52;;;;;;;9.43;89.22;102392.03;6043811;19;20011;-69
2023/05/02 01:57:08;;;;;;;24.63;8.02;;;;;;;9.48;88.99;102392.00;6049116;19;20077;-70
2023/05/02 01:59:17;;;;;;;17.05;7.32;;;;;;;9.38;88.05;102398.22;6047984;19;20483;-69
2023/05/02 02:01:27;;;;;;;16.67;6.43;;;;;;;9.39;87.63;102394.72;6046735;19;20431;-70
2023/05/02 02:03:33;;;;;;;19.10;7.13;;;;;;;9.44;87.91;102401.63;6049300;19;20407;-68
2023/05/02 02:05:41;;;;;;;16.05;7.07;;;;;;;9.45;87.61;102399.88;6049560;19;20732;-68
2023/05/02 02:07:46;;;;;;;13.18;5.57;;;;;;;9.43;87.54;102402.53;6053072;19;20010;-70
2023/05/02 02:09:51;;;;;;;17.60;6.43;;;;;;;9.36;87.20;102413.09;6045460;19;20500;-70
2023/05/02 02:12:05;;;;;;;20.90;7.60;;;;;;;9.41;87.05;102411.31;6040852;19;20190;-70
2023/05/02 02:14:16;;;;;;;14.10;5.32;;;;;;;9.40;86.49;102410.44;6044991;19;20632;-70
2023/05/02 02:16:32;;;;;;;17.70;5.97;;;;;;;9.41;86.25;102420.03;6040322;19;20299;-70
2023/05/02 02:18:39;;;;;;;13.27;6.18;;;;;;;9.37;86.60;102422.72;6043042;19;20139;-69
2023/05/02 02:20:46;;;;;;;15.48;5.53;;;;;;;9.40;86.07;102422.66;6047397;19;20481;-70
2023/05/02 02:22:55;;;;;;;12.73;5.47;;;;;;;9.33;85.75;102427.13;6040122;19;20370;-69
2023/05/02 02:25:02;;;;;;;19.85;5.55;;;;;;;9.29;85.79;102437.66;6039027;19;20375;-70
2023/05/02 02:27:07;;;;;;;15.57;6.07;;;;;;;9.32;86.16;102435.00;6049800;19;20309;-70
2023/05/02 02:29:13;;;;;;;18.20;6.05;;;;;;;9.33;86.06;102428.88;6042942;19;20532;-69
2023/05/02 02:31:17;;;;;;;20.23;5.75;;;;;;;9.27;86.15;102427.19;6045956;19;20011;-69
2023/05/02 02:33:30;;;;;;;20.52;5.43;;;;;;;9.32;86.17;102430.66;6059032;19;20042;-69
2023/05/02 02:35:42;;;;;;;16.58;5.90;;;;;;;9.35;85.79;102446.34;6043983;19;20318;-70
2023/05/02 02:37:52;;;;;;;20.55;4.78;;;;;;;9.35;84.87;102432.38;6049321;19;20132;-70
2023/05/02 02:40:05;;;;;;;17.83;4.47;;;;;;;9.23;84.69;102438.59;6044531;19;20745;-70
2023/05/02 02:42:16;;;;;;;11.02;4.28;;;;;;;9.28;84.65;102434.16;6049944;19;20018;-70
2023/05/02 02:44:30;;;;;;;13.30;4.13;;;;;;;9.22;84.28;102437.72;6038998;19;20028;-70
2023/05/02 02:46:48;;;;;;;10.95;4.07;;;;;;;9.25;83.93;102439.44;6044512;19;20488;-70
2023/05/02 02:49:12;;;;;;;10.20;4.05;;;;;;;9.17;83.37;102436.03;6046376;19;20006;-70
2023/05/02 02:51:31;;;;;;;15.45;4.85;;;;;;;9.11;83.05;102442.22;6044708;19;20039;-70
2023/05/02 02:53:53;;;;;;;13.52;4.00;;;;;;;9.13;83.33;102436.94;6038124;19;20342;-70
2023/05/02 02:56:04;;;;;;;12.77;4.80;;;;;;;9.10;82.80;102447.44;6040477;19;20571;-70
2023/05/02 02:58:20;;;;;;;26.63;4.93;;;;;;;9.14;82.64;102447.41;6042213;19;20020;-69
2023/05/02 03:00:29;;;;;;;11.63;4.72;;;;;;;9.13;82.67;102453.53;6044266;19;20069;-70
2023/05/02 03:02:35;;;;;;;9.70;3.75;;;;;;;9.13;82.91;102455.28;6044396;19;20223;-70
2023/05/02 03:04:46;;;;;;;12.90;3.90;;;;;;;9.09;82.35;102454.44;6043415;19;20212;-69
2023/05/02 03:06:51;;;;;;;12.05;4.30;;;;;;;9.09;82.10;102462.31;6045154;19;20019;-70
2023/05/02 03:08:57;;;;;;;12.82;3.78;;;;;;;9.08;82.11;102457.94;6042955;19;20379;-70
2023/05/02 03:11:03;;;;;;;13.63;3.88;;;;;;;9.03;81.13;102465.00;6045388;19;20503;-70
2023/05/02 03:13:09;;;;;;;12.50;3.70;;;;;;;9.03;81.10;102470.25;6042534;19;20068;-70
2023/05/02 03:15:30;;;;;;;12.70;3.40;;;;;;;9.07;81.23;102468.47;6044704;19;20106;-69
2023/05/02 03:17:35;;;;;;;11.80;3.83;;;;;;;9.05;80.00;102473.69;6023912;19;20007;-70
2023/05/02 03:19:43;;;;;;;10.73;3.17;;;;;;;9.00;80.13;102475.50;6041605;19;20729;-70
2023/05/02 03:21:48;;;;;;;9.77;3.97;;;;;;;8.99;79.90;102473.75;6042346;19;20514;-70
2023/05/02 03:23:57;;;;;;;9.15;3.88;;;;;;;8.99;79.42;102477.25;6052539;19;20265;-69
2023/05/02 03:26:02;;;;;;;9.10;3.17;;;;;;;8.99;79.38;102484.25;6043198;19;20289;-69
2023/05/02 03:28:08;;;;;;;12.63;4.10;;;;;;;9.05;79.66;102484.19;6041228;19;20014;-69
2023/05/02 03:30:13;;;;;;;10.48;4.55;;;;;;;9.05;79.96;102478.94;6044200;19;20313;-69
2023/05/02 03:32:18;;;;;;;11.05;3.47;;;;;;;9.06;79.70;102490.31;6043589;19;20260;-69
2023/05/02 03:34:25;;;;;;;10.75;3.97;;;;;;;9.05;80.03;102496.44;6047711;19;20311;-69
2023/05/02 03:36:33;;;;;;;11.05;3.78;;;;;;;9.02;80.12;102492.09;6039115;19;20023;-69
2023/05/02 03:38:41;;;;;;;12.30;3.67;;;;;;;9.02;80.11;102498.19;6045425;19;20122;-69
2023/05/02 03:40:47;;;;;;;15.73;4.28;;;;;;;9.06;80.23;102495.53;6048301;19;20534;-69
2023/05/02 03:42:53;;;;;;;13.48;3.30;;;;;;;8.99;80.49;102492.97;6043207;19;20061;-69
2023/05/02 03:44:59;;;;;;;16.13;4.47;;;;;;;9.02;80.35;102498.19;6046919;19;20155;-70
2023/05/02 03:47:05;;;;;;;12.35;3.85;;;;;;;9.00;80.46;102497.38;6050033;19;20653;-71
2023/05/02 03:49:10;;;;;;;13.80;3.72;;;;;;;8.96;81.01;102507.88;6053173;19;20404;-70
2023/05/02 03:51:16;;;;;;;12.57;3.55;;;;;;;8.97;80.55;102509.59;6047948;19;20634;-69
2023/05/02 03:53:24;;;;;;;11.10;3.30;;;;;;;9.01;79.96;102520.06;6045028;19;20566;-69
2023/05/02 03:55:29;;;;;;;14.75;3.63;;;;;;;8.94;79.11;102515.75;6047259;19;20420;-69
2023/05/02 03:57:37;;;;;;;12.05;2.97;;;;;;;8.89;79.22;102514.03;6053214;19;20006;-70
2023/05/02 03:59:44;;;;;;;20.95;5.32;;;;;;;8.89;78.90;102519.28;6047567;19;20011;-69
2023/05/02 04:01:51;;;;;;;8.98;3.20;;;;;;;8.90;78.95;102521.91;6048482;19;20040;-70
2023/05/02 04:03:57;;;;;;;5.97;2.80;;;;;;;8.90;78.12;102521.00;6048497;19;20207;-69
2023/05/02 04:06:03;;;;;;;6.70;2.70;;;;;;;8.91;77.67;102522.75;6051627;19;20439;-69
2023/05/02 04:08:08;;;;;;;13.18;3.17;;;;;;;8.87;77.88;102528.91;6050777;19;20189;-70
2023/05/02 04:10:18;;;;;;;10.75;3.10;;;;;;;8.85;77.59;102528.06;6053932;19;20523;-70
2023/05/02 04:12:26;;;;;;;7.47;2.85;;;;;;;8.76;78.47;102528.97;6047129;19;20289;-69
2023/05/02 04:14:32;;;;;;;8.10;2.80;;;;;;;8.77;78.13;102526.34;6043496;19;20048;-69
2023/05/02 04:16:38;;;;;;;14.02;3.42;;;;;;;8.75;77.97;102530.72;6045603;19;20517;-70
2023/05/02 04:18:43;;;;;;;11.40;2.90;;;;;;;8.71;78.36;102535.97;6057725;19;20011;-69
2023/05/02 04:20:49;;;;;;;8.93;2.92;;;;;;;8.74;78.35;102541.19;6048957;19;20611;-69
2023/05/02 04:22:55;;;;;;;7.68;3.53;;;;;;;8.76;78.13;102539.44;6045887;19;20018;-70
2023/05/02 04:25:02;;;;;;;8.23;3.05;;;;;;;8.81;78.21;102545.53;6051334;19;20570;-70
2023/05/02 04:27:10;;;;;;;9.75;3.30;;;;;;;8.71;78.38;102549.94;6044321;19;20151;-69
2023/05/02 04:29:18;;;;;;;14.07;3.42;;;;;;;8.85;78.65;102554.28;6045511;19;20349;-69
2023/05/02 04:31:25;;;;;;;7.70;2.80;;;;;;;8.87;78.30;102549.88;6044004;19;20713;-70
2023/05/02 04:33:31;;;;;;;11.10;3.63;;;;;;;8.84;77.95;102552.50;6042560;19;20393;-69
2023/05/02 04:35:37;;;;;;;13.43;3.25;;;;;;;8.73;77.68;102556.06;6038883;19;20576;-69
2023/05/02 04:37:42;;;;;;;16.20;4.68;;;;;;;8.73;77.98;102561.31;6038340;19;20328;-69
2023/05/02 04:39:47;;;;;;;11.15;4.15;;;;;;;8.69;78.09;102570.09;6050132;19;20024;-69
2023/05/02 04:41:52;;;;;;;11.38;3.40;;;;;;;8.71;77.72;102577.91;6046972;19;20186;-69
2023/05/02 04:44:00;;;;;;;9.88;3.75;;;;;;;8.74;77.96;102575.28;6044446;19;20320;-69
2023/05/02 04:46:06;;;;;;;9.77;3.25;;;;;;;8.76;77.89;102574.38;6045819;19;20006;-70
2023/05/02 04:48:11;;;;;;;13.40;3.08;;;;;;;8.86;77.45;102574.34;6043695;19;20011;-70
2023/05/02 04:50:16;;;;;;;12.00;3.38;;;;;;;8.82;77.47;102583.09;6050511;19;20524;-69
2023/05/02 04:52:22;;;;;;;7.53;3.17;;;;;;;8.81;77.45;102578.75;6040004;19;20015;-70
2023/05/02 04:54:27;;;;;;;11.75;3.28;;;;;;;8.84;77.22;102589.22;6032910;19;20014;-70
2023/05/02 04:56:33;;;;;;;12.18;3.45;;;;;;;8.80;76.80;102583.13;6056654;19;20011;-70
2023/05/02 04:58:38;;;;;;;10.45;2.78;;;;;;;8.74;76.93;102584.03;6040352;19;20724;-71
2023/05/02 05:00:46;;;;;;;15.48;4.40;;;;;;;8.69;77.09;102585.81;6043773;19;20011;-71
2023/05/02 05:02:51;;;;;;;10.38;3.45;;;;;;;8.77;77.08;102588.38;6049747;19;20312;-70
2023/05/02 05:04:56;;;;;;;10.75;3.50;;;;;;;8.83;76.94;102587.47;6043117;19;20425;-70
2023/05/02 05:07:02;;;;;;;20.67;4.45;;;;;;;8.97;76.85;102588.25;6046905;19;20218;-69
2023/05/02 05:09:07;;;;;;;17.02;3.63;;;;;;;8.88;76.89;102591.81;6052259;19;20699;-70
2023/05/02 05:11:13;;;;;;;15.93;3.95;;;;;;;8.97;75.92;102593.50;6049451;19;20620;-69
2023/05/02 05:13:18;;;;;;;15.05;4.20;;;;;;;8.99;75.58;102599.63;6049712;19;20195;-69
2023/05/02 05:15:24;;;;;;;15.70;3.88;;;;;;;8.97;75.63;102601.38;6051970;19;20572;-70
2023/05/02 05:17:32;;;;;;;11.38;4.43;;;;;;;8.98;75.51;102600.53;6026976;19;20174;-69
2023/05/02 05:19:37;;;;;;;11.90;3.42;;;;;;;8.97;75.17;102611.88;6055474;19;20860;-70
2023/05/02 05:21:42;;;;;;;16.13;4.82;;;;;;;9.01;75.03;102610.97;6052185;19;20006;-69
2023/05/02 05:23:47;;;;;;;8.25;3.50;;;;;;;9.00;75.25;102611.84;6048647;19;20011;-70
2023/05/02 05:25:52;;;;;;;17.83;4.45;;;;;;;8.97;75.59;102619.72;6065239;19;20006;-69
2023/05/02 05:27:57;;;;;;;15.95;4.07;;;;;;;8.96;75.81;102624.09;6060856;19;20021;-69
2023/05/02 05:30:03;;;;;;;19.70;4.43;;;;;;;9.00;76.08;102628.47;6050359;19;20308;-69
2023/05/02 05:32:09;;;;;;;14.45;4.80;;;;;;;9.03;75.63;102622.34;6050496;19;20318;-69
2023/05/02 05:34:18;;;;;;;9.45;3.60;;;;;;;9.18;75.13;102626.59;6047443;19;20297;-70
2023/05/02 05:36:24;;;;;;;14.93;3.50;;;;;;;9.11;75.37;102643.25;6054472;19;20626;-71
2023/05/02 05:38:29;;;;;;;17.60;3.92;;;;;;;9.08;75.18;102631.03;6043233;19;20254;-71
2023/05/02 05:40:35;;;;;;;13.02;3.75;;;;;;;9.17;74.42;102636.25;6046668;19;20018;-71
2023/05/02 05:42:40;;;;;;;11.13;3.90;;;;;;;9.20;74.79;102651.09;6046966;19;20014;-71
2023/05/02 05:44:46;;;;;;;15.07;3.53;;;;;;;9.25;74.24;102651.06;6048507;19;20106;-71
2023/05/02 05:46:51;;;;;;;11.27;3.30;;;;;;;9.19;73.22;102660.72;6048912;19;20265;-70
2023/05/02 05:48:56;;;;;;;12.25;3.92;;;;;;;9.23;72.56;102662.41;6049301;19;20175;-69
2023/05/02 05:51:08;;;;;;;10.60;3.33;;;;;;;9.31;71.80;102666.75;6044982;19;20090;-69
2023/05/02 05:53:13;;;;;;;13.70;3.40;;;;;;;9.33;70.80;102662.38;6057192;19;20285;-70
2023/05/02 05:55:19;;;;;;;13.70;3.60;;;;;;;9.31;71.09;102669.38;6049161;19;20629;-70
2023/05/02 05:57:25;;;;;;;10.43;3.25;;;;;;;9.43;70.32;102671.94;6045024;19;20006;-69
2023/05/02 05:59:30;;;;;;;8.35;3.30;;;;;;;9.43;70.58;102674.56;6060091;19;20618;-69
2023/05/02 06:01:36;;;;;;;15.13;3.70;;;;;;;9.46;70.98;102677.16;6056652;19;20635;-72
2023/05/02 06:03:42;;;;;;;12.55;3.60;;;;;;;9.47;70.72;102680.66;6053934;19;21714;-71
2023/05/02 06:05:47;;;;;;;10.48;3.25;;;;;;;9.58;70.81;102684.06;6051094;19;20010;-69
2023/05/02 06:07:55;;;;;;;14.05;3.95;;;;;;;9.91;70.92;102695.22;6049333;19;20414;-70
2023/05/02 06:10:01;;;;;;;10.40;3.35;;;;;;;10.08;69.74;102691.59;6054236;19;20292;-71
2023/05/02 06:12:06;;;;;;;11.18;3.00;;;;;;;9.99;69.51;102698.66;6053547;19;20423;-69
2023/05/02 06:14:12;;;;;;;19.08;5.25;;;;;;;10.06;69.23;102692.47;6050698;19;20369;-70
2023/05/02 06:16:22;;;;;;;13.35;3.33;;;;;;;9.93;69.09;102703.97;6053943;19;20287;-70
2023/05/02 06:18:27;;;;;;;10.60;3.80;;;;;;;9.81;68.40;102699.66;6047333;19;20657;-68
2023/05/02 06:20:37;;;;;;;8.55;3.10;;;;;;;9.76;68.20;102702.31;6055854;19;20205;-71
2023/05/02 06:22:42;;;;;;;9.63;3.08;;;;;;;9.89;68.64;102708.34;6052062;19;20421;-70
2023/05/02 06:24:50;;;;;;;12.05;3.70;;;;;;;10.36;68.32;102711.50;6049281;19;20459;-69
2023/05/02 06:26:56;;;;;;;9.60;3.45;;;;;;;10.29;67.92;102711.56;6046301;19;20029;-70
2023/05/02 06:29:02;;;;;;;10.45;3.92;;;;;;;9.72;68.46;102712.88;6049494;19;20011;-70
2023/05/02 06:31:07;;;;;;;15.25;4.47;;;;;;;9.79;67.93;102715.41;6043520;19;20468;-70
2023/05/02 06:33:13;;;;;;;16.48;4.18;;;;;;;9.72;68.69;102723.38;6045297;19;20509;-70
2023/05/02 06:35:18;;;;;;;8.75;2.92;;;;;;;9.91;69.24;102721.50;6050500;19;20277;-70
2023/05/02 06:37:24;;;;;;;9.55;3.10;;;;;;;9.94;67.77;102724.94;6046566;19;20336;-69
2023/05/02 06:39:29;;;;;;;15.35;3.65;;;;;;;9.91;68.01;102734.63;6047147;19;20556;-69
2023/05/02 06:41:37;;;;;;;13.70;3.58;;;;;;;9.73;67.87;102730.34;6051810;19;20014;-69
2023/05/02 06:43:42;;;;;;;11.30;3.53;;;;;;;9.81;67.50;102739.06;6051305;19;20889;-70
2023/05/02 06:45:47;;;;;;;12.10;4.25;;;;;;;9.85;67.59;102744.28;6054229;19;20408;-70
2023/05/02 06:47:53;;;;;;;12.38;3.13;;;;;;;9.92;67.34;102744.22;6042368;19;20382;-69
2023/05/02 06:49:58;;;;;;;11.68;3.55;;;;;;;9.98;66.70;102752.06;6047350;19;20093;-70
2023/05/02 06:52:04;;;;;;;10.82;3.38;;;;;;;10.00;66.57;102752.91;6051330;19;20423;-70
2023/05/02 06:54:10;;;;;;;11.18;3.67;;;;;;;9.91;66.51;102755.63;6047720;19;20014;-69
2023/05/02 06:56:15;;;;;;;17.70;4.03;;;;;;;10.24;66.19;102751.84;6050012;19;20451;-70
2023/05/02 06:58:24;;;;;;;13.95;4.05;;;;;;;10.22;65.98;102757.13;6048182;19;20246;-70
2023/05/02 07:00:29;;;;;;;9.25;3.40;;;;;;;10.33;65.43;102759.69;6043278;19;20232;-70
2023/05/02 07:02:35;;;;;;;13.35;3.70;;;;;;;10.42;65.09;102764.84;6051229;19;20519;-70
2023/05/02 07:04:40;;;;;;;8.63;3.60;;;;;;;10.61;63.91;102762.97;6048418;19;20291;-70
2023/05/02 07:06:45;;;;;;;13.40;3.55;;;;;;;10.98;63.58;102760.81;6048658;19;20039;-71
2023/05/02 07:08:50;;;;;;;11.77;3.20;;;;;;;11.20;61.94;102771.94;6046226;19;20123;-71
2023/05/02 07:10:56;;;;;;;11.68;3.45;;;;;;;11.17;61.35;102771.97;6042891;19;20190;-71
2023/05/02 07:13:04;;;;;;;9.68;3.58;;;;;;;12.39;59.56;102768.47;6045210;19;20014;-71
2023/05/02 07:15:13;;;;;;;10.82;3.15;;;;;;;12.18;56.88;102763.56;6043583;19;20014;-70
2023/05/02 07:17:18;;;;;;;10.98;3.25;;;;;;;11.85;57.21;102766.69;6044230;19;20022;-71
2023/05/02 07:19:25;;;;;;;9.10;3.28;;;;;;;11.64;58.27;102767.84;6044889;19;20010;-71
2023/05/02 07:21:31;;;;;;;7.53;2.78;;;;;;;11.61;57.93;102767.91;6049361;19;20010;-71
2023/05/02 07:23:36;;;;;;;11.52;2.90;;;;;;;12.07;57.79;102767.25;6062819;19;20109;-71
2023/05/02 07:25:42;;;;;;;11.80;3.35;;;;;;;12.23;57.94;102778.41;6045883;19;20039;-69
2023/05/02 07:27:47;;;;;;;8.20;2.53;;;;;;;12.13;57.25;102766.25;6045682;19;20289;-69
2023/05/02 07:29:52;;;;;;;9.27;3.05;;;;;;;11.93;58.72;102773.59;6043466;19;20574;-70
2023/05/02 07:32:00;;;;;;;8.15;3.03;;;;;;;11.88;58.85;102786.00;6046836;19;20451;-70
2023/05/02 07:34:05;;;;;;;8.52;3.13;;;;;;;11.72;58.95;102791.47;6045468;19;20010;-69
2023/05/02 07:36:10;;;;;;;6.13;3.00;;;;;;;11.19;59.92;102787.75;5994932;19;20641;-69
2023/05/02 07:38:16;;;;;;;12.85;3.45;;;;;;;10.98;61.37;102797.63;6050628;19;20542;-71
2023/05/02 07:40:21;;;;;;;7.80;3.17;;;;;;;11.03;62.04;102794.06;6056005;19;20019;-71
2023/05/02 07:42:30;;;;;;;11.10;3.35;;;;;;;11.10;61.57;102798.38;6059458;19;20442;-70
2023/05/02 07:44:36;;;;;;;8.15;2.92;;;;;;;11.27;61.63;102806.06;6056155;19;20034;-70
2023/05/02 07:46:41;;;;;;;10.93;2.92;;;;;;;11.12;60.76;102808.00;6048638;19;20330;-69
2023/05/02 07:48:49;;;;;;;8.95;2.90;;;;;;;11.15;59.70;102809.72;6047972;19;20317;-70
2023/05/02 07:50:55;;;;;;;9.40;2.92;;;;;;;11.15;59.58;102807.97;6047236;19;20010;-70
2023/05/02 07:53:00;;;;;;;10.68;2.83;;;;;;;11.03;59.66;102805.44;6043812;19;20200;-71
2023/05/02 07:55:08;;;;;;;7.65;2.58;;;;;;;11.73;58.92;102816.88;6051047;19;20158;-71
2023/05/02 07:57:14;;;;;;;7.22;2.75;;;;;;;12.10;56.28;102816.38;6056971;19;20205;-73
2023/05/02 07:59:20;;;;;;;9.20;2.83;;;;;;;12.33;55.13;102809.91;6056311;19;20468;-72
2023/05/02 08:01:27;;;;;;;7.50;2.88;;;;;;;12.22;55.09;102821.47;6054372;19;20280;-72
2023/05/02 08:03:33;;;;;;;9.90;2.78;;;;;;;12.23;54.44;102817.06;6056743;19;20007;-72
2023/05/02 08:05:41;;;;;;;8.15;2.78;;;;;;;11.98;55.75;102824.47;6056063;19;20027;-72
2023/05/02 08:07:46;;;;;;;5.78;2.40;;;;;;;11.79;54.67;102827.31;6056472;19;20009;-72
2023/05/02 08:09:51;;;;;;;5.85;2.00;;;;;;;11.92;54.91;102829.84;6051663;19;20036;-72
2023/05/02 08:11:57;;;;;;;8.50;2.80;;;;;;;12.04;55.82;102827.91;6061821;19;20390;-71
2023/05/02 08:14:03;;;;;;;4.57;2.78;;;;;;;12.29;52.57;102817.84;6046982;19;20105;-73
2023/05/02 08:16:08;;;;;;;9.90;2.90;;;;;;;13.00;53.03;102823.66;6044560;19;20056;-72
2023/05/02 08:18:14;;;;;;;6.75;2.63;;;;;;;13.34;50.94;102824.75;6044269;19;20566;-71
2023/05/02 08:20:21;;;;;;;8.20;2.85;;;;;;;13.06;51.47;102819.16;6040985;19;20006;-71
2023/05/02 08:22:30;;;;;;;8.98;2.67;;;;;;;12.27;50.82;102834.59;6046490;19;20519;-71
2023/05/02 08:24:36;;;;;;;6.97;2.78;;;;;;;11.50;53.13;102834.75;6044848;19;20490;-72
2023/05/02 08:26:41;;;;;;;8.25;2.45;;;;;;;11.88;53.65;102834.28;6044133;19;20220;-72
2023/05/02 08:28:46;;;;;;;9.98;2.75;;;;;;;11.68;51.53;102845.03;6036393;19;20051;-72
2023/05/02 08:30:52;;;;;;;7.13;2.20;;;;;;;11.42;50.28;102837.47;6048319;19;20014;-72
2023/05/02 08:32:57;;;;;;;4.30;2.15;;;;;;;11.33;50.95;102835.84;6037758;19;20384;-72
2023/05/02 08:35:03;;;;;;;4.60;2.05;;;;;;;12.53;49.95;102839.41;6038544;19;20007;-72
2023/05/02 08:37:11;;;;;;;4.65;2.30;;;;;;;13.34;46.09;102834.47;6036552;19;20230;-71
2023/05/02 08:39:18;;;;;;;4.85;2.22;;;;;;;13.59;43.95;102841.00;6039096;19;20098;-72
2023/05/02 08:41:25;;;;;;;6.82;2.20;;;;;;;13.74;44.91;102849.47;6040824;19;20208;-72
2023/05/02 08:43:33;;;;;;;6.22;2.17;;;;;;;12.77;45.33;102859.25;6054741;19;20430;-72
2023/05/02 08:45:42;;;;;;;7.90;2.60;;;;;;;13.67;44.39;102861.09;6051298;19;20302;-71
2023/05/02 08:47:48;;;;;;;4.88;2.08;;;;;;;14.44;43.25;102854.91;6054777;19;20106;-73
2023/05/02 08:49:57;;;;;;;3.97;2.30;;;;;;;14.31;42.61;102856.13;6051799;19;20308;-73
2023/05/02 08:52:03;;;;;;;4.53;2.25;;;;;;;14.53;43.01;102856.50;6047363;19;20372;-72
2023/05/02 08:54:11;;;;;;;4.10;2.25;;;;;;;14.74;41.72;102855.09;6040987;19;20433;-71
2023/05/02 08:56:19;;;;;;;5.95;1.90;;;;;;;14.34;42.14;102856.91;6050511;19;20693;-74
2023/05/02 08:58:24;;;;;;;8.38;2.28;;;;;;;14.24;40.65;102851.00;6048700;19;20011;-74
2023/05/02 09:00:30;;;;;;;2.80;1.90;;;;;;;14.10;43.19;102846.94;6040677;19;20206;-73
2023/05/02 09:02:51;;;;;;;6.00;2.50;;;;;;;14.52;42.16;102860.03;6048645;19;20285;-74
2023/05/02 09:05:01;;;;;;;5.15;2.53;;;;;;;15.17;40.94;102861.91;6053525;19;20476;-72
2023/05/02 09:07:06;;;;;;;7.53;1.95;;;;;;;14.77;40.71;102863.84;6048706;19;20675;-72
2023/05/02 09:09:13;;;;;;;7.25;2.33;;;;;;;15.04;41.17;102859.59;6047405;19;20308;-72
2023/05/02 09:11:24;;;;;;;5.70;2.33;;;;;;;15.10;40.00;102870.00;6047155;19;20349;-72
2023/05/02 09:13:37;;;;;;;5.25;2.15;;;;;;;15.66;40.58;102873.75;6045530;19;20014;-72
2023/05/02 09:15:42;;;;;;;4.35;2.13;;;;;;;15.64;40.27;102879.09;6059021;19;20446;-73
2023/05/02 09:17:50;;;;;;;4.25;2.50;;;;;;;15.47;40.16;102873.41;6106319;19;20471;-72
2023/05/02 09:20:02;;;;;;;5.90;2.22;;;;;;;15.55;40.08;102869.63;6100964;19;20014;-73
2023/05/02 09:22:07;;;;;;;3.80;2.20;;;;;;;15.65;39.04;102869.38;6102592;19;20394;-72
2023/05/02 09:24:22;;;;;;;4.53;2.40;;;;;;;15.87;38.82;102874.91;6102797;19;20052;-73
2023/05/02 09:26:32;;;;;;;7.75;3.20;;;;;;;15.79;38.52;102881.31;6095922;19;20014;-72
2023/05/02 09:28:45;;;;;;;5.60;2.10;;;;;;;15.76;38.22;102876.09;6100179;19;20023;-72
2023/05/02 09:30:50;;;;;;;4.15;2.05;;;;;;;16.21;38.31;102878.25;6103416;19;20354;-72
2023/05/02 09:32:55;;;;;;;4.90;2.20;;;;;;;16.12;37.53;102875.03;6104517;19;20014;-72
2023/05/02 09:35:07;;;;;;;6.03;2.28;;;;;;;16.35;37.60;102882.25;6102309;19;20031;-72
2023/05/02 09:37:12;;;;;;;5.70;2.78;;;;;;;15.51;38.35;102885.69;6101252;19;20031;-73
2023/05/02 09:39:20;;;;;;;5.20;2.47;;;;;;;16.41;37.92;102890.03;6102255;19;20589;-72
2023/05/02 09:41:42;;;;;;;7.50;2.70;;;;;;;16.75;37.17;102886.28;6081843;19;20031;-72
2023/05/02 09:43:57;;;;;;;4.30;2.20;;;;;;;16.87;37.51;102889.38;6102213;19;20090;-73
2023/05/02 09:46:04;;;;;;;6.60;2.40;;;;;;;16.75;37.52;102888.94;6104676;19;20178;-72
2023/05/02 09:48:10;;;;;;;7.53;2.38;;;;;;;16.12;37.59;102886.53;6106249;19;20023;-72
2023/05/02 09:50:35;;;;;;;6.32;2.40;;;;;;;16.16;37.80;102897.88;6104729;19;20231;-72
2023/05/02 09:52:40;;;;;;;4.15;2.10;;;;;;;15.07;40.24;102901.00;6101594;19;20294;-72